sensor_id;sensor_type;location;lat;lon;timestamp;P1;durP1;ratioP1;P2;durP2;ratioP2
27983;SDS011;15317;50.360;8.726;2023-05-08T00:02:23;11.70;;;10.90;;
27983;SDS011;15317;50.360;8.726;2023-05-08T00:07:26;11.90;;;11.10;;
27983;SDS011;15317;50.360;8.726;2023-05-08T00:12:29;11.30;;;10.50;;
27983;SDS011;15317;50.360;8.726;2023-05-08T00:17:33;11.53;;;10.73;;
27983;SDS011;15317;50.360;8.726;2023-05-08T00:22:37;11.00;;;10.30;;
27983;SDS011;15317;50.360;8.726;2023-05-08T00:27:40;11.37;;;10.57;;
27983;SDS011;15317;50.360;8.726;2023-05-08T00:32:44;11.90;;;11.10;;
27983;SDS011;15317;50.360;8.726;2023-05-08T00:37:48;12.27;;;11.13;;
27983;SDS011;15317;50.360;8.726;2023-05-08T00:42:51;11.97;;;10.97;;
27983;SDS011;15317;50.360;8.726;2023-05-08T00:47:56;11.93;;;11.03;;
27983;SDS011;15317;50.360;8.726;2023-05-08T00:52:59;12.40;;;11.50;;
27983;SDS011;15317;50.360;8.726;2023-05-08T00:58:04;11.90;;;11.03;;
27983;SDS011;15317;50.360;8.726;2023-05-08T01:03:10;12.10;;;11.20;;
27983;SDS011;15317;50.360;8.726;2023-05-08T01:08:14;11.90;;;11.10;;
27983;SDS011;15317;50.360;8.726;2023-05-08T01:13:19;12.37;;;11.47;;
27983;SDS011;15317;50.360;8.726;2023-05-08T01:18:40;12.17;;;11.27;;
27983;SDS011;15317;50.360;8.726;2023-05-08T01:29:29;12.40;;;11.60;;
27983;SDS011;15317;50.360;8.726;2023-05-08T01:34:48;12.63;;;11.57;;
27983;SDS011;15317;50.360;8.726;2023-05-08T01:40:00;12.30;;;11.50;;
27983;SDS011;15317;50.360;8.726;2023-05-08T01:45:10;13.03;;;11.83;;
27983;SDS011;15317;50.360;8.726;2023-05-08T01:50:21;13.77;;;12.77;;
27983;SDS011;15317;50.360;8.726;2023-05-08T01:55:33;14.43;;;13.43;;
27983;SDS011;15317;50.360;8.726;2023-05-08T02:00:38;15.77;;;14.57;;
27983;SDS011;15317;50.360;8.726;2023-05-08T02:05:44;14.60;;;13.47;;
27983;SDS011;15317;50.360;8.726;2023-05-08T02:10:50;14.97;;;13.67;;
27983;SDS011;15317;50.360;8.726;2023-05-08T02:15:55;14.83;;;13.80;;
27983;SDS011;15317;50.360;8.726;2023-05-08T02:21:02;15.27;;;14.23;;
27983;SDS011;15317;50.360;8.726;2023-05-08T02:26:07;14.73;;;13.70;;
27983;SDS011;15317;50.360;8.726;2023-05-08T02:31:11;14.90;;;13.80;;
27983;SDS011;15317;50.360;8.726;2023-05-08T02:36:17;15.73;;;14.53;;
27983;SDS011;15317;50.360;8.726;2023-05-08T02:41:21;16.30;;;14.97;;
27983;SDS011;15317;50.360;8.726;2023-05-08T02:46:29;16.23;;;14.93;;
27983;SDS011;15317;50.360;8.726;2023-05-08T02:51:46;15.20;;;14.10;;
27983;SDS011;15317;50.360;8.726;2023-05-08T02:56:55;15.43;;;14.23;;
27983;SDS011;15317;50.360;8.726;2023-05-08T03:02:04;14.47;;;13.37;;
27983;SDS011;15317;50.360;8.726;2023-05-08T03:07:12;16.10;;;14.90;;
27983;SDS011;15317;50.360;8.726;2023-05-08T03:12:17;14.97;;;13.77;;
27983;SDS011;15317;50.360;8.726;2023-05-08T03:17:23;15.33;;;14.23;;
27983;SDS011;15317;50.360;8.726;2023-05-08T03:22:31;15.63;;;14.43;;
27983;SDS011;15317;50.360;8.726;2023-05-08T03:27:36;15.70;;;14.50;;
27983;SDS011;15317;50.360;8.726;2023-05-08T03:32:40;15.60;;;14.30;;
27983;SDS011;15317;50.360;8.726;2023-05-08T03:37:47;18.00;;;16.60;;
27983;SDS011;15317;50.360;8.726;2023-05-08T03:42:50;18.10;;;16.70;;
27983;SDS011;15317;50.360;8.726;2023-05-08T03:47:54;17.63;;;16.23;;
27983;SDS011;15317;50.360;8.726;2023-05-08T03:53:01;16.47;;;15.27;;
27983;SDS011;15317;50.360;8.726;2023-05-08T03:58:09;17.60;;;16.27;;
27983;SDS011;15317;50.360;8.726;2023-05-08T04:03:20;17.20;;;15.90;;
27983;SDS011;15317;50.360;8.726;2023-05-08T04:08:28;18.13;;;16.73;;
27983;SDS011;15317;50.360;8.726;2023-05-08T04:13:38;16.23;;;14.93;;
27983;SDS011;15317;50.360;8.726;2023-05-08T04:18:45;16.33;;;15.13;;
27983;SDS011;15317;50.360;8.726;2023-05-08T04:23:52;16.10;;;14.87;;
27983;SDS011;15317;50.360;8.726;2023-05-08T04:28:58;16.83;;;15.30;;
27983;SDS011;15317;50.360;8.726;2023-05-08T04:34:02;17.20;;;15.83;;
27983;SDS011;15317;50.360;8.726;2023-05-08T04:39:06;17.30;;;15.87;;
27983;SDS011;15317;50.360;8.726;2023-05-08T04:44:09;17.47;;;16.07;;
27983;SDS011;15317;50.360;8.726;2023-05-08T04:49:13;17.23;;;15.80;;
27983;SDS011;15317;50.360;8.726;2023-05-08T04:54:18;18.00;;;16.57;;
27983;SDS011;15317;50.360;8.726;2023-05-08T04:59:21;16.30;;;15.00;;
27983;SDS011;15317;50.360;8.726;2023-05-08T05:04:25;15.73;;;14.63;;
27983;SDS011;15317;50.360;8.726;2023-05-08T05:09:30;16.80;;;15.33;;
27983;SDS011;15317;50.360;8.726;2023-05-08T05:14:37;16.13;;;14.93;;
27983;SDS011;15317;50.360;8.726;2023-05-08T05:19:41;16.17;;;14.87;;
27983;SDS011;15317;50.360;8.726;2023-05-08T05:24:45;17.73;;;16.23;;
27983;SDS011;15317;50.360;8.726;2023-05-08T05:29:48;16.80;;;15.60;;
27983;SDS011;15317;50.360;8.726;2023-05-08T05:34:51;17.13;;;15.67;;
27983;SDS011;15317;50.360;8.726;2023-05-08T05:39:56;18.10;;;16.70;;
27983;SDS011;15317;50.360;8.726;2023-05-08T05:44:59;16.27;;;15.03;;
27983;SDS011;15317;50.360;8.726;2023-05-08T05:50:02;16.37;;;15.10;;
27983;SDS011;15317;50.360;8.726;2023-05-08T05:55:07;16.10;;;14.90;;
27983;SDS011;15317;50.360;8.726;2023-05-08T06:00:11;17.23;;;15.97;;
27983;SDS011;15317;50.360;8.726;2023-05-08T06:05:15;17.20;;;15.70;;
27983;SDS011;15317;50.360;8.726;2023-05-08T06:10:21;17.03;;;15.50;;
27983;SDS011;15317;50.360;8.726;2023-05-08T06:15:24;15.93;;;14.73;;
27983;SDS011;15317;50.360;8.726;2023-05-08T06:20:27;16.00;;;14.70;;
27983;SDS011;15317;50.360;8.726;2023-05-08T06:25:31;16.80;;;15.60;;
27983;SDS011;15317;50.360;8.726;2023-05-08T06:30:35;17.80;;;16.30;;
27983;SDS011;15317;50.360;8.726;2023-05-08T06:35:38;16.23;;;14.90;;
27983;SDS011;15317;50.360;8.726;2023-05-08T06:40:43;15.77;;;14.67;;
27983;SDS011;15317;50.360;8.726;2023-05-08T06:45:46;17.50;;;16.10;;
27983;SDS011;15317;50.360;8.726;2023-05-08T06:50:49;17.33;;;16.03;;
27983;SDS011;15317;50.360;8.726;2023-05-08T06:55:54;17.93;;;16.43;;
27983;SDS011;15317;50.360;8.726;2023-05-08T07:00:58;16.83;;;15.43;;
27983;SDS011;15317;50.360;8.726;2023-05-08T07:06:02;18.00;;;16.60;;
27983;SDS011;15317;50.360;8.726;2023-05-08T07:11:06;17.87;;;16.57;;
27983;SDS011;15317;50.360;8.726;2023-05-08T07:16:10;19.07;;;17.60;;
27983;SDS011;15317;50.360;8.726;2023-05-08T07:21:14;17.77;;;16.37;;
27983;SDS011;15317;50.360;8.726;2023-05-08T07:26:20;17.87;;;16.47;;
27983;SDS011;15317;50.360;8.726;2023-05-08T07:31:23;17.60;;;16.30;;
27983;SDS011;15317;50.360;8.726;2023-05-08T07:36:27;17.67;;;16.27;;
27983;SDS011;15317;50.360;8.726;2023-05-08T07:41:31;17.77;;;16.37;;
27983;SDS011;15317;50.360;8.726;2023-05-08T07:46:34;17.60;;;16.20;;
27983;SDS011;15317;50.360;8.726;2023-05-08T07:51:38;17.57;;;16.07;;
27983;SDS011;15317;50.360;8.726;2023-05-08T07:56:43;17.07;;;15.77;;
27983;SDS011;15317;50.360;8.726;2023-05-08T08:01:47;18.93;;;17.33;;
27983;SDS011;15317;50.360;8.726;2023-05-08T08:06:50;19.17;;;17.60;;
27983;SDS011;15317;50.360;8.726;2023-05-08T08:11:55;17.63;;;16.33;;
27983;SDS011;15317;50.360;8.726;2023-05-08T08:16:58;18.20;;;16.77;;
27983;SDS011;15317;50.360;8.726;2023-05-08T08:22:02;19.37;;;17.83;;
27983;SDS011;15317;50.360;8.726;2023-05-08T08:27:06;17.87;;;16.47;;
27983;SDS011;15317;50.360;8.726;2023-05-08T08:32:10;17.30;;;16.00;;
27983;SDS011;15317;50.360;8.726;2023-05-08T08:37:13;17.13;;;15.87;;
27983;SDS011;15317;50.360;8.726;2023-05-08T08:42:17;17.60;;;16.10;;
27983;SDS011;15317;50.360;8.726;2023-05-08T08:47:21;15.63;;;14.47;;
27983;SDS011;15317;50.360;8.726;2023-05-08T08:52:29;15.60;;;14.40;;
27983;SDS011;15317;50.360;8.726;2023-05-08T08:57:35;16.37;;;14.97;;
27983;SDS011;15317;50.360;8.726;2023-05-08T09:02:41;15.90;;;14.70;;
27983;SDS011;15317;50.360;8.726;2023-05-08T09:07:44;16.63;;;15.43;;
27983;SDS011;15317;50.360;8.726;2023-05-08T09:12:50;16.83;;;15.63;;
27983;SDS011;15317;50.360;8.726;2023-05-08T09:17:54;15.37;;;14.17;;
27983;SDS011;15317;50.360;8.726;2023-05-08T09:22:58;16.13;;;14.93;;
27983;SDS011;15317;50.360;8.726;2023-05-08T09:28:15;17.13;;;15.93;;
27983;SDS011;15317;50.360;8.726;2023-05-08T09:33:19;16.17;;;14.97;;
27983;SDS011;15317;50.360;8.726;2023-05-08T09:38:33;15.50;;;14.40;;
27983;SDS011;15317;50.360;8.726;2023-05-08T09:43:39;15.97;;;14.83;;
27983;SDS011;15317;50.360;8.726;2023-05-08T09:48:43;15.47;;;14.37;;
27983;SDS011;15317;50.360;8.726;2023-05-08T09:53:48;16.10;;;14.90;;
27983;SDS011;15317;50.360;8.726;2023-05-08T09:58:55;16.03;;;14.93;;
27983;SDS011;15317;50.360;8.726;2023-05-08T10:03:58;14.57;;;13.47;;
27983;SDS011;15317;50.360;8.726;2023-05-08T10:09:05;16.83;;;15.63;;
27983;SDS011;15317;50.360;8.726;2023-05-08T10:14:10;16.07;;;14.87;;
27983;SDS011;15317;50.360;8.726;2023-05-08T10:19:14;15.67;;;14.57;;
27983;SDS011;15317;50.360;8.726;2023-05-08T10:24:19;16.10;;;14.90;;
27983;SDS011;15317;50.360;8.726;2023-05-08T10:29:31;14.73;;;13.73;;
27983;SDS011;15317;50.360;8.726;2023-05-08T10:34:39;14.13;;;13.03;;
27983;SDS011;15317;50.360;8.726;2023-05-08T10:39:43;15.03;;;13.97;;
27983;SDS011;15317;50.360;8.726;2023-05-08T10:44:48;12.93;;;12.03;;
27983;SDS011;15317;50.360;8.726;2023-05-08T10:49:54;12.77;;;11.87;;
27983;SDS011;15317;50.360;8.726;2023-05-08T10:55:13;13.03;;;12.13;;
27983;SDS011;15317;50.360;8.726;2023-05-08T11:00:23;13.87;;;12.67;;
27983;SDS011;15317;50.360;8.726;2023-05-08T11:05:26;13.67;;;12.57;;
27983;SDS011;15317;50.360;8.726;2023-05-08T11:10:29;13.13;;;12.13;;
27983;SDS011;15317;50.360;8.726;2023-05-08T11:15:35;13.43;;;12.63;;
27983;SDS011;15317;50.360;8.726;2023-05-08T11:20:39;13.83;;;12.70;;
27983;SDS011;15317;50.360;8.726;2023-05-08T11:25:43;13.30;;;12.43;;
27983;SDS011;15317;50.360;8.726;2023-05-08T11:30:51;14.73;;;13.47;;
27983;SDS011;15317;50.360;8.726;2023-05-08T11:35:56;13.73;;;12.67;;
27983;SDS011;15317;50.360;8.726;2023-05-08T11:41:03;14.67;;;13.43;;
27983;SDS011;15317;50.360;8.726;2023-05-08T11:46:12;13.97;;;12.93;;
27983;SDS011;15317;50.360;8.726;2023-05-08T11:51:17;13.67;;;12.77;;
27983;SDS011;15317;50.360;8.726;2023-05-08T11:56:21;13.80;;;12.70;;
27983;SDS011;15317;50.360;8.726;2023-05-08T12:01:25;13.43;;;12.53;;
27983;SDS011;15317;50.360;8.726;2023-05-08T12:06:29;14.00;;;13.00;;
27983;SDS011;15317;50.360;8.726;2023-05-08T12:11:33;14.20;;;13.20;;
27983;SDS011;15317;50.360;8.726;2023-05-08T12:16:39;13.60;;;12.70;;
27983;SDS011;15317;50.360;8.726;2023-05-08T12:21:44;13.57;;;12.67;;
27983;SDS011;15317;50.360;8.726;2023-05-08T12:26:52;14.00;;;12.93;;
27983;SDS011;15317;50.360;8.726;2023-05-08T12:31:57;14.73;;;13.73;;
27983;SDS011;15317;50.360;8.726;2023-05-08T12:37:01;14.33;;;13.33;;
27983;SDS011;15317;50.360;8.726;2023-05-08T12:42:05;13.80;;;12.83;;
27983;SDS011;15317;50.360;8.726;2023-05-08T12:47:09;14.07;;;13.07;;
27983;SDS011;15317;50.360;8.726;2023-05-08T12:52:12;12.63;;;11.63;;
27983;SDS011;15317;50.360;8.726;2023-05-08T12:57:17;13.33;;;12.23;;
27983;SDS011;15317;50.360;8.726;2023-05-08T13:02:24;13.77;;;12.87;;
27983;SDS011;15317;50.360;8.726;2023-05-08T13:07:30;13.80;;;12.80;;
27983;SDS011;15317;50.360;8.726;2023-05-08T13:12:33;13.43;;;12.53;;
27983;SDS011;15317;50.360;8.726;2023-05-08T13:17:37;13.17;;;12.27;;
27983;SDS011;15317;50.360;8.726;2023-05-08T13:22:41;14.00;;;13.07;;
27983;SDS011;15317;50.360;8.726;2023-05-08T13:27:44;13.93;;;13.03;;
27983;SDS011;15317;50.360;8.726;2023-05-08T13:32:48;12.70;;;11.73;;
27983;SDS011;15317;50.360;8.726;2023-05-08T13:37:52;14.15;;;13.07;;
27983;SDS011;15317;50.360;8.726;2023-05-08T13:42:55;12.57;;;11.68;;
27983;SDS011;15317;50.360;8.726;2023-05-08T13:48:00;12.05;;;11.15;;
27983;SDS011;15317;50.360;8.726;2023-05-08T13:53:04;12.87;;;12.07;;
27983;SDS011;15317;50.360;8.726;2023-05-08T13:58:08;12.30;;;11.40;;
27983;SDS011;15317;50.360;8.726;2023-05-08T14:03:12;11.55;;;10.77;;
27983;SDS011;15317;50.360;8.726;2023-05-08T14:08:16;10.77;;;10.07;;
27983;SDS011;15317;50.360;8.726;2023-05-08T14:13:19;10.75;;;9.95;;
27983;SDS011;15317;50.360;8.726;2023-05-08T14:18:24;11.55;;;10.75;;
27983;SDS011;15317;50.360;8.726;2023-05-08T14:23:28;11.40;;;10.60;;
27983;SDS011;15317;50.360;8.726;2023-05-08T14:28:31;12.87;;;11.97;;
27983;SDS011;15317;50.360;8.726;2023-05-08T14:33:36;11.55;;;10.65;;
27983;SDS011;15317;50.360;8.726;2023-05-08T14:38:39;11.82;;;11.02;;
27983;SDS011;15317;50.360;8.726;2023-05-08T14:43:42;11.15;;;10.40;;
27983;SDS011;15317;50.360;8.726;2023-05-08T14:48:47;11.77;;;10.98;;
27983;SDS011;15317;50.360;8.726;2023-05-08T14:53:50;12.57;;;11.70;;
27983;SDS011;15317;50.360;8.726;2023-05-08T14:58:53;10.93;;;10.15;;
27983;SDS011;15317;50.360;8.726;2023-05-08T15:03:58;12.90;;;11.93;;
27983;SDS011;15317;50.360;8.726;2023-05-08T15:09:01;12.43;;;11.63;;
27983;SDS011;15317;50.360;8.726;2023-05-08T15:14:04;12.10;;;11.30;;
27983;SDS011;15317;50.360;8.726;2023-05-08T15:19:08;12.45;;;11.48;;
27983;SDS011;15317;50.360;8.726;2023-05-08T15:24:12;11.82;;;11.02;;
27983;SDS011;15317;50.360;8.726;2023-05-08T15:29:15;12.38;;;11.57;;
27983;SDS011;15317;50.360;8.726;2023-05-08T15:34:19;13.32;;;12.35;;
27983;SDS011;15317;50.360;8.726;2023-05-08T15:39:25;13.07;;;11.82;;
27983;SDS011;15317;50.360;8.726;2023-05-08T15:44:28;11.85;;;11.05;;
27983;SDS011;15317;50.360;8.726;2023-05-08T15:49:53;11.18;;;10.38;;
27983;SDS011;15317;50.360;8.726;2023-05-08T15:54:56;11.88;;;11.07;;
27983;SDS011;15317;50.360;8.726;2023-05-08T15:59:59;11.52;;;10.70;;
27983;SDS011;15317;50.360;8.726;2023-05-08T16:05:03;12.60;;;11.70;;
27983;SDS011;15317;50.360;8.726;2023-05-08T16:10:07;11.57;;;10.85;;
27983;SDS011;15317;50.360;8.726;2023-05-08T16:15:11;13.25;;;12.25;;
27983;SDS011;15317;50.360;8.726;2023-05-08T16:20:16;12.75;;;11.95;;
27983;SDS011;15317;50.360;8.726;2023-05-08T16:25:19;13.32;;;12.40;;
27983;SDS011;15317;50.360;8.726;2023-05-08T16:30:22;14.05;;;13.00;;
27983;SDS011;15317;50.360;8.726;2023-05-08T16:35:27;13.77;;;12.68;;
27983;SDS011;15317;50.360;8.726;2023-05-08T16:40:30;12.95;;;12.05;;
27983;SDS011;15317;50.360;8.726;2023-05-08T16:45:33;12.38;;;11.57;;
27983;SDS011;15317;50.360;8.726;2023-05-08T16:50:38;12.55;;;11.65;;
27983;SDS011;15317;50.360;8.726;2023-05-08T16:55:41;13.20;;;12.13;;
27983;SDS011;15317;50.360;8.726;2023-05-08T17:00:44;13.90;;;12.90;;
27983;SDS011;15317;50.360;8.726;2023-05-08T17:05:49;11.80;;;11.00;;
27983;SDS011;15317;50.360;8.726;2023-05-08T17:10:52;14.25;;;13.05;;
27983;SDS011;15317;50.360;8.726;2023-05-08T17:15:56;14.40;;;12.93;;
27983;SDS011;15317;50.360;8.726;2023-05-08T17:21:01;13.55;;;12.55;;
27983;SDS011;15317;50.360;8.726;2023-05-08T17:26:04;13.87;;;12.90;;
27983;SDS011;15317;50.360;8.726;2023-05-08T17:31:07;14.13;;;13.03;;
27983;SDS011;15317;50.360;8.726;2023-05-08T17:36:12;13.87;;;12.87;;
27983;SDS011;15317;50.360;8.726;2023-05-08T17:41:15;15.40;;;14.20;;
27983;SDS011;15317;50.360;8.726;2023-05-08T17:46:18;14.53;;;13.43;;
27983;SDS011;15317;50.360;8.726;2023-05-08T17:51:23;14.93;;;13.83;;
27983;SDS011;15317;50.360;8.726;2023-05-08T17:56:26;15.30;;;14.20;;
27983;SDS011;15317;50.360;8.726;2023-05-08T18:01:32;15.60;;;14.40;;
27983;SDS011;15317;50.360;8.726;2023-05-08T18:06:36;14.60;;;13.50;;
27983;SDS011;15317;50.360;8.726;2023-05-08T18:11:40;14.40;;;13.40;;
27983;SDS011;15317;50.360;8.726;2023-05-08T18:16:43;16.33;;;15.03;;
27983;SDS011;15317;50.360;8.726;2023-05-08T18:21:47;15.73;;;14.53;;
27983;SDS011;15317;50.360;8.726;2023-05-08T18:26:50;15.10;;;14.00;;
27983;SDS011;15317;50.360;8.726;2023-05-08T18:31:54;15.73;;;14.63;;
27983;SDS011;15317;50.360;8.726;2023-05-08T18:36:59;14.83;;;13.73;;
27983;SDS011;15317;50.360;8.726;2023-05-08T18:42:02;16.43;;;15.23;;
27983;SDS011;15317;50.360;8.726;2023-05-08T18:47:05;16.60;;;15.30;;
27983;SDS011;15317;50.360;8.726;2023-05-08T18:52:10;17.03;;;15.73;;
27983;SDS011;15317;50.360;8.726;2023-05-08T18:57:15;17.00;;;15.70;;
27983;SDS011;15317;50.360;8.726;2023-05-08T19:02:19;16.37;;;15.13;;
27983;SDS011;15317;50.360;8.726;2023-05-08T19:07:26;16.20;;;15.00;;
27983;SDS011;15317;50.360;8.726;2023-05-08T19:12:29;16.93;;;15.53;;
27983;SDS011;15317;50.360;8.726;2023-05-08T19:17:33;16.13;;;14.90;;
27983;SDS011;15317;50.360;8.726;2023-05-08T19:22:39;16.87;;;15.57;;
27983;SDS011;15317;50.360;8.726;2023-05-08T19:27:42;16.20;;;15.00;;
27983;SDS011;15317;50.360;8.726;2023-05-08T19:32:45;17.87;;;16.50;;
27983;SDS011;15317;50.360;8.726;2023-05-08T19:37:49;18.87;;;17.37;;
27983;SDS011;15317;50.360;8.726;2023-05-08T19:42:52;18.50;;;17.20;;
27983;SDS011;15317;50.360;8.726;2023-05-08T19:47:55;18.70;;;17.27;;
27983;SDS011;15317;50.360;8.726;2023-05-08T19:53:00;18.10;;;16.63;;
27983;SDS011;15317;50.360;8.726;2023-05-08T19:58:03;18.07;;;16.67;;
27983;SDS011;15317;50.360;8.726;2023-05-08T20:03:06;17.77;;;16.47;;
27983;SDS011;15317;50.360;8.726;2023-05-08T20:08:10;18.03;;;16.73;;
27983;SDS011;15317;50.360;8.726;2023-05-08T20:13:13;17.33;;;16.03;;
27983;SDS011;15317;50.360;8.726;2023-05-08T20:18:17;17.57;;;16.10;;
27983;SDS011;15317;50.360;8.726;2023-05-08T20:23:21;18.73;;;17.17;;
27983;SDS011;15317;50.360;8.726;2023-05-08T20:28:24;17.23;;;15.93;;
27983;SDS011;15317;50.360;8.726;2023-05-08T20:33:28;18.23;;;16.83;;
27983;SDS011;15317;50.360;8.726;2023-05-08T20:38:32;17.97;;;16.67;;
27983;SDS011;15317;50.360;8.726;2023-05-08T20:43:37;18.50;;;17.20;;
27983;SDS011;15317;50.360;8.726;2023-05-08T20:48:40;19.27;;;17.77;;
27983;SDS011;15317;50.360;8.726;2023-05-08T20:53:44;17.47;;;16.20;;
27983;SDS011;15317;50.360;8.726;2023-05-08T20:58:47;16.23;;;15.03;;
27983;SDS011;15317;50.360;8.726;2023-05-08T21:03:51;18.93;;;17.53;;
27983;SDS011;15317;50.360;8.726;2023-05-08T21:08:55;18.37;;;16.80;;
27983;SDS011;15317;50.360;8.726;2023-05-08T21:13:59;19.17;;;17.77;;
27983;SDS011;15317;50.360;8.726;2023-05-08T21:19:02;18.27;;;16.97;;
27983;SDS011;15317;50.360;8.726;2023-05-08T21:24:07;20.83;;;19.23;;
27983;SDS011;15317;50.360;8.726;2023-05-08T21:29:10;19.33;;;17.83;;
27983;SDS011;15317;50.360;8.726;2023-05-08T21:34:14;21.73;;;20.03;;
27983;SDS011;15317;50.360;8.726;2023-05-08T21:39:19;19.70;;;17.97;;
27983;SDS011;15317;50.360;8.726;2023-05-08T21:44:22;22.27;;;20.37;;
27983;SDS011;15317;50.360;8.726;2023-05-08T21:49:25;20.57;;;19.07;;
27983;SDS011;15317;50.360;8.726;2023-05-08T21:54:30;20.17;;;18.57;;
27983;SDS011;15317;50.360;8.726;2023-05-08T21:59:33;16.40;;;15.17;;
27983;SDS011;15317;50.360;8.726;2023-05-08T22:04:37;19.97;;;18.47;;
27983;SDS011;15317;50.360;8.726;2023-05-08T22:09:41;20.77;;;19.17;;
27983;SDS011;15317;50.360;8.726;2023-05-08T22:14:45;20.33;;;18.73;;
27983;SDS011;15317;50.360;8.726;2023-05-08T22:19:48;19.73;;;18.23;;
27983;SDS011;15317;50.360;8.726;2023-05-08T22:24:53;18.23;;;16.83;;
27983;SDS011;15317;50.360;8.726;2023-05-08T22:29:57;20.33;;;18.70;;
27983;SDS011;15317;50.360;8.726;2023-05-08T22:35:01;19.57;;;18.17;;
27983;SDS011;15317;50.360;8.726;2023-05-08T22:40:07;19.70;;;18.27;;
27983;SDS011;15317;50.360;8.726;2023-05-08T22:45:11;21.70;;;19.87;;
27983;SDS011;15317;50.360;8.726;2023-05-08T22:50:16;21.77;;;19.97;;
27983;SDS011;15317;50.360;8.726;2023-05-08T22:55:21;22.70;;;20.77;;
27983;SDS011;15317;50.360;8.726;2023-05-08T23:00:24;21.57;;;19.97;;
27983;SDS011;15317;50.360;8.726;2023-05-08T23:05:28;22.20;;;20.40;;
27983;SDS011;15317;50.360;8.726;2023-05-08T23:10:32;22.83;;;21.13;;
27983;SDS011;15317;50.360;8.726;2023-05-08T23:15:36;23.93;;;22.13;;
27983;SDS011;15317;50.360;8.726;2023-05-08T23:20:39;23.50;;;21.77;;
27983;SDS011;15317;50.360;8.726;2023-05-08T23:25:43;24.20;;;22.30;;
27983;SDS011;15317;50.360;8.726;2023-05-08T23:30:47;25.53;;;23.43;;
27983;SDS011;15317;50.360;8.726;2023-05-08T23:35:50;25.77;;;23.67;;
27983;SDS011;15317;50.360;8.726;2023-05-08T23:40:54;26.20;;;23.97;;
27983;SDS011;15317;50.360;8.726;2023-05-08T23:45:57;27.40;;;25.20;;
27983;SDS011;15317;50.360;8.726;2023-05-08T23:51:00;27.00;;;24.70;;
27983;SDS011;15317;50.360;8.726;2023-05-08T23:56:05;26.60;;;24.40;;
